Strona główna
METAR-TAF:

METAR-TAF

Lotnisko :

Port lotniczy Budapeszt im. Ferenca Liszta

Budapeszt, Węgry

Szerokość geograficzna: 47-26N, Długość geograficzna: 019-16E, wysokość: 151 m

Aktualna obserwacja pogody

Raport powstał 18 minut temu, godzina 04:30 UTC
Wiatr 2 kt z kierunków zmiennych
Temperatura -1°C
Wilgotność 80%
Ciśnienie 1023 hPa
Widzialność 10 km lub więcej
Brak chmur poniżej 1500 m i brak chmur cumulonimbus

METAR: LHBP 090430Z VRB02KT CAVOK M01/M04 Q1023 NOSIG

czas: 06:48 (04:48 UTC)

Prognoza

Raport powstał 5 godziny i 33 minut temu, godzina 23:15 UTC
Prognoza ważna od 09 godzina 00 UTC do 09 godzina 24 UTC
Wiatr 3 kt z kierunków zmiennych
Widzialność 10 km lub więcej
Brak chmur poniżej 1500 m i brak chmur cumulonimbus
Stopniowe zmiany
od 09 godzina 09 UTC do 09 godzina 11 UTC
Wiatr 8 kt od zachodnio-południowy zachód

TAF: LHBP 082315Z 0900/0924 VRB03KT CAVOK BECMG 0909/0911 24008KT

Obserwacja i prognoza pogody dla ponad 4000 lotnisk (raport METAR i TAF).

Dostępne stacje oznaczono żółtymi i czerwonymi punktami na mapie.

Najedź kursorem aby zobaczyć nazwę stacji.

Kliknij aby zobaczyć obserwacje i prognozy pogody.

Aby zmienić mapę: kliknij na zielony przycisk z czarnym krzyżykiem, aby powiększyć; na zielony przycisk z myślnikiem, aby pomniejszyć; na zielone strzałki, aby przejść do map sąsiednich.


METAR-TAF: